sensor_id;sensor_type;location;lat;lon;timestamp;P1;durP1;ratioP1;P2;durP2;ratioP2
58928;SDS011;44713;53.378;10.022;2023-02-17T00:00:50;42.38;;;30.27;;
58928;SDS011;44713;53.378;10.022;2023-02-17T00:03:15;43.28;;;30.55;;
58928;SDS011;44713;53.378;10.022;2023-02-17T00:05:41;41.97;;;29.33;;
58928;SDS011;44713;53.378;10.022;2023-02-17T00:08:06;40.53;;;29.52;;
58928;SDS011;44713;53.378;10.022;2023-02-17T00:10:31;41.35;;;30.13;;
58928;SDS011;44713;53.378;10.022;2023-02-17T00:12:57;38.97;;;28.90;;
58928;SDS011;44713;53.378;10.022;2023-02-17T00:15:22;38.58;;;27.88;;
58928;SDS011;44713;53.378;10.022;2023-02-17T00:17:47;37.92;;;27.60;;
58928;SDS011;44713;53.378;10.022;2023-02-17T00:20:13;37.33;;;27.75;;
58928;SDS011;44713;53.378;10.022;2023-02-17T00:22:38;37.28;;;26.80;;
58928;SDS011;44713;53.378;10.022;2023-02-17T00:25:03;36.67;;;27.20;;
58928;SDS011;44713;53.378;10.022;2023-02-17T00:27:29;40.13;;;27.95;;
58928;SDS011;44713;53.378;10.022;2023-02-17T00:29:54;35.45;;;26.92;;
58928;SDS011;44713;53.378;10.022;2023-02-17T00:32:20;36.08;;;27.13;;
58928;SDS011;44713;53.378;10.022;2023-02-17T00:34:48;38.55;;;26.67;;
58928;SDS011;44713;53.378;10.022;2023-02-17T00:37:13;37.03;;;27.73;;
58928;SDS011;44713;53.378;10.022;2023-02-17T00:39:38;34.53;;;26.70;;
58928;SDS011;44713;53.378;10.022;2023-02-17T00:42:04;38.50;;;27.88;;
58928;SDS011;44713;53.378;10.022;2023-02-17T00:44:29;35.97;;;27.10;;
58928;SDS011;44713;53.378;10.022;2023-02-17T00:46:55;35.42;;;25.55;;
58928;SDS011;44713;53.378;10.022;2023-02-17T00:49:21;35.17;;;26.35;;
58928;SDS011;44713;53.378;10.022;2023-02-17T00:51:49;36.10;;;26.70;;
58928;SDS011;44713;53.378;10.022;2023-02-17T00:54:15;35.22;;;26.92;;
58928;SDS011;44713;53.378;10.022;2023-02-17T00:56:41;38.65;;;26.92;;
58928;SDS011;44713;53.378;10.022;2023-02-17T00:59:07;38.22;;;27.27;;
58928;SDS011;44713;53.378;10.022;2023-02-17T01:01:34;36.25;;;27.58;;
58928;SDS011;44713;53.378;10.022;2023-02-17T01:03:59;37.33;;;27.55;;
58928;SDS011;44713;53.378;10.022;2023-02-17T01:06:26;36.30;;;26.70;;
58928;SDS011;44713;53.378;10.022;2023-02-17T01:08:53;36.35;;;26.40;;
58928;SDS011;44713;53.378;10.022;2023-02-17T01:11:20;37.10;;;27.48;;
58928;SDS011;44713;53.378;10.022;2023-02-17T01:13:48;36.75;;;27.50;;
58928;SDS011;44713;53.378;10.022;2023-02-17T01:16:18;40.65;;;27.40;;
58928;SDS011;44713;53.378;10.022;2023-02-17T01:18:46;35.67;;;27.45;;
58928;SDS011;44713;53.378;10.022;2023-02-17T01:21:19;36.15;;;26.52;;
58928;SDS011;44713;53.378;10.022;2023-02-17T01:23:53;38.72;;;28.80;;
58928;SDS011;44713;53.378;10.022;2023-02-17T01:26:22;38.08;;;27.25;;
58928;SDS011;44713;53.378;10.022;2023-02-17T01:28:49;38.90;;;28.00;;
58928;SDS011;44713;53.378;10.022;2023-02-17T01:31:16;38.33;;;28.38;;
58928;SDS011;44713;53.378;10.022;2023-02-17T01:33:42;40.53;;;28.60;;
58928;SDS011;44713;53.378;10.022;2023-02-17T01:36:09;38.78;;;28.70;;
58928;SDS011;44713;53.378;10.022;2023-02-17T01:38:38;40.90;;;29.88;;
58928;SDS011;44713;53.378;10.022;2023-02-17T01:41:04;42.58;;;30.35;;
58928;SDS011;44713;53.378;10.022;2023-02-17T01:43:30;45.05;;;30.80;;
58928;SDS011;44713;53.378;10.022;2023-02-17T01:45:56;38.50;;;27.02;;
58928;SDS011;44713;53.378;10.022;2023-02-17T01:49:11;40.20;;;27.85;;
58928;SDS011;44713;53.378;10.022;2023-02-17T01:51:20;40.70;;;29.08;;
58928;SDS011;44713;53.378;10.022;2023-02-17T01:53:53;40.38;;;29.00;;
58928;SDS011;44713;53.378;10.022;2023-02-17T01:56:24;40.22;;;28.02;;
58928;SDS011;44713;53.378;10.022;2023-02-17T01:58:53;36.03;;;27.58;;
58928;SDS011;44713;53.378;10.022;2023-02-17T02:01:21;37.92;;;27.60;;
58928;SDS011;44713;53.378;10.022;2023-02-17T02:03:47;35.92;;;27.13;;
58928;SDS011;44713;53.378;10.022;2023-02-17T02:06:17;39.75;;;27.40;;
58928;SDS011;44713;53.378;10.022;2023-02-17T02:09:08;37.63;;;27.10;;
58928;SDS011;44713;53.378;10.022;2023-02-17T02:11:37;36.17;;;26.35;;
58928;SDS011;44713;53.378;10.022;2023-02-17T02:14:03;34.45;;;26.33;;
58928;SDS011;44713;53.378;10.022;2023-02-17T02:28:50;33.28;;;23.73;;
58928;SDS011;44713;53.378;10.022;2023-02-17T02:31:41;32.47;;;23.95;;
58928;SDS011;44713;53.378;10.022;2023-02-17T02:34:29;30.23;;;22.30;;
58928;SDS011;44713;53.378;10.022;2023-02-17T02:37:04;33.92;;;24.48;;
58928;SDS011;44713;53.378;10.022;2023-02-17T02:39:34;35.10;;;24.92;;
58928;SDS011;44713;53.378;10.022;2023-02-17T02:42:08;30.70;;;23.67;;
58928;SDS011;44713;53.378;10.022;2023-02-17T02:44:37;32.33;;;23.50;;
58928;SDS011;44713;53.378;10.022;2023-02-17T02:47:04;30.50;;;23.85;;
58928;SDS011;44713;53.378;10.022;2023-02-17T02:49:32;32.38;;;23.25;;
58928;SDS011;44713;53.378;10.022;2023-02-17T02:52:18;29.70;;;21.95;;
58928;SDS011;44713;53.378;10.022;2023-02-17T03:00:19;31.55;;;22.58;;
58928;SDS011;44713;53.378;10.022;2023-02-17T03:08:11;27.58;;;20.35;;
58928;SDS011;44713;53.378;10.022;2023-02-17T03:10:46;27.17;;;20.30;;
58928;SDS011;44713;53.378;10.022;2023-02-17T03:13:13;26.83;;;20.65;;
58928;SDS011;44713;53.378;10.022;2023-02-17T03:15:39;25.05;;;19.23;;
58928;SDS011;44713;53.378;10.022;2023-02-17T03:18:05;28.35;;;20.48;;
58928;SDS011;44713;53.378;10.022;2023-02-17T03:20:34;25.77;;;19.15;;
58928;SDS011;44713;53.378;10.022;2023-02-17T03:23:02;28.33;;;20.13;;
58928;SDS011;44713;53.378;10.022;2023-02-17T03:25:29;25.60;;;18.50;;
58928;SDS011;44713;53.378;10.022;2023-02-17T03:27:54;25.65;;;18.95;;
58928;SDS011;44713;53.378;10.022;2023-02-17T03:30:20;27.33;;;19.58;;
58928;SDS011;44713;53.378;10.022;2023-02-17T03:32:46;24.75;;;18.85;;
58928;SDS011;44713;53.378;10.022;2023-02-17T03:35:11;25.75;;;17.75;;
58928;SDS011;44713;53.378;10.022;2023-02-17T03:37:37;23.75;;;18.25;;
58928;SDS011;44713;53.378;10.022;2023-02-17T03:40:02;25.58;;;19.42;;
58928;SDS011;44713;53.378;10.022;2023-02-17T03:42:28;25.83;;;18.33;;
58928;SDS011;44713;53.378;10.022;2023-02-17T03:44:53;23.30;;;18.58;;
58928;SDS011;44713;53.378;10.022;2023-02-17T03:47:19;24.30;;;19.48;;
58928;SDS011;44713;53.378;10.022;2023-02-17T03:49:44;25.70;;;18.42;;
58928;SDS011;44713;53.378;10.022;2023-02-17T03:52:10;24.80;;;18.95;;
58928;SDS011;44713;53.378;10.022;2023-02-17T03:54:35;25.13;;;18.40;;
58928;SDS011;44713;53.378;10.022;2023-02-17T03:57:01;23.95;;;18.35;;
58928;SDS011;44713;53.378;10.022;2023-02-17T03:59:27;22.83;;;16.95;;
58928;SDS011;44713;53.378;10.022;2023-02-17T04:01:53;24.73;;;18.95;;
58928;SDS011;44713;53.378;10.022;2023-02-17T04:04:18;22.77;;;16.90;;
58928;SDS011;44713;53.378;10.022;2023-02-17T04:06:44;24.02;;;18.10;;
58928;SDS011;44713;53.378;10.022;2023-02-17T04:09:09;27.08;;;18.05;;
58928;SDS011;44713;53.378;10.022;2023-02-17T04:11:35;22.13;;;17.55;;
58928;SDS011;44713;53.378;10.022;2023-02-17T04:14:00;24.30;;;17.15;;
58928;SDS011;44713;53.378;10.022;2023-02-17T04:16:25;22.75;;;16.95;;
58928;SDS011;44713;53.378;10.022;2023-02-17T04:18:51;24.33;;;18.13;;
58928;SDS011;44713;53.378;10.022;2023-02-17T04:21:16;25.17;;;17.60;;
58928;SDS011;44713;53.378;10.022;2023-02-17T04:23:41;24.00;;;17.63;;
58928;SDS011;44713;53.378;10.022;2023-02-17T04:26:07;25.48;;;17.83;;
58928;SDS011;44713;53.378;10.022;2023-02-17T04:28:34;25.85;;;17.60;;
58928;SDS011;44713;53.378;10.022;2023-02-17T04:31:02;25.33;;;17.90;;
58928;SDS011;44713;53.378;10.022;2023-02-17T04:33:27;29.38;;;18.80;;
58928;SDS011;44713;53.378;10.022;2023-02-17T04:35:53;26.40;;;17.85;;
58928;SDS011;44713;53.378;10.022;2023-02-17T04:38:23;25.52;;;17.88;;
58928;SDS011;44713;53.378;10.022;2023-02-17T04:40:51;24.02;;;17.00;;
58928;SDS011;44713;53.378;10.022;2023-02-17T04:43:18;22.80;;;16.75;;
58928;SDS011;44713;53.378;10.022;2023-02-17T04:45:43;25.48;;;17.65;;
58928;SDS011;44713;53.378;10.022;2023-02-17T04:48:09;23.92;;;16.88;;
58928;SDS011;44713;53.378;10.022;2023-02-17T04:50:34;26.63;;;17.80;;
58928;SDS011;44713;53.378;10.022;2023-02-17T04:52:59;25.83;;;18.00;;
58928;SDS011;44713;53.378;10.022;2023-02-17T04:55:25;25.98;;;17.17;;
58928;SDS011;44713;53.378;10.022;2023-02-17T04:57:50;22.63;;;16.38;;
58928;SDS011;44713;53.378;10.022;2023-02-17T05:00:15;26.38;;;19.02;;
58928;SDS011;44713;53.378;10.022;2023-02-17T05:02:41;25.70;;;17.75;;
58928;SDS011;44713;53.378;10.022;2023-02-17T05:05:07;27.60;;;18.55;;
58928;SDS011;44713;53.378;10.022;2023-02-17T05:07:33;26.35;;;19.25;;
58928;SDS011;44713;53.378;10.022;2023-02-17T05:09:58;29.98;;;19.85;;
58928;SDS011;44713;53.378;10.022;2023-02-17T05:12:23;29.48;;;20.50;;
58928;SDS011;44713;53.378;10.022;2023-02-17T05:14:49;32.08;;;20.02;;
58928;SDS011;44713;53.378;10.022;2023-02-17T05:17:14;32.10;;;21.52;;
58928;SDS011;44713;53.378;10.022;2023-02-17T05:19:40;37.53;;;22.48;;
58928;SDS011;44713;53.378;10.022;2023-02-17T05:22:05;34.42;;;22.90;;
58928;SDS011;44713;53.378;10.022;2023-02-17T05:24:30;37.47;;;23.83;;
58928;SDS011;44713;53.378;10.022;2023-02-17T05:26:56;39.35;;;23.38;;
58928;SDS011;44713;53.378;10.022;2023-02-17T05:29:21;36.20;;;24.05;;
58928;SDS011;44713;53.378;10.022;2023-02-17T05:31:48;40.55;;;24.85;;
58928;SDS011;44713;53.378;10.022;2023-02-17T05:34:13;39.92;;;24.83;;
58928;SDS011;44713;53.378;10.022;2023-02-17T05:36:38;40.42;;;25.13;;
58928;SDS011;44713;53.378;10.022;2023-02-17T05:39:04;40.58;;;25.45;;
58928;SDS011;44713;53.378;10.022;2023-02-17T05:41:29;40.08;;;25.95;;
58928;SDS011;44713;53.378;10.022;2023-02-17T05:43:55;41.85;;;25.25;;
58928;SDS011;44713;53.378;10.022;2023-02-17T05:46:20;43.58;;;25.35;;
58928;SDS011;44713;53.378;10.022;2023-02-17T05:48:47;40.92;;;25.40;;
58928;SDS011;44713;53.378;10.022;2023-02-17T05:51:12;43.13;;;24.85;;
58928;SDS011;44713;53.378;10.022;2023-02-17T05:53:41;42.60;;;24.90;;
58928;SDS011;44713;53.378;10.022;2023-02-17T05:56:07;40.90;;;25.17;;
58928;SDS011;44713;53.378;10.022;2023-02-17T05:58:33;41.03;;;24.48;;
58928;SDS011;44713;53.378;10.022;2023-02-17T06:00:59;38.83;;;24.00;;
58928;SDS011;44713;53.378;10.022;2023-02-17T06:03:24;35.97;;;22.70;;
58928;SDS011;44713;53.378;10.022;2023-02-17T06:05:50;38.33;;;24.38;;
58928;SDS011;44713;53.378;10.022;2023-02-17T06:08:15;39.50;;;23.02;;
58928;SDS011;44713;53.378;10.022;2023-02-17T06:10:41;38.40;;;23.27;;
58928;SDS011;44713;53.378;10.022;2023-02-17T06:13:06;42.85;;;23.08;;
58928;SDS011;44713;53.378;10.022;2023-02-17T06:15:32;37.20;;;23.10;;
58928;SDS011;44713;53.378;10.022;2023-02-17T06:17:58;40.55;;;23.20;;
58928;SDS011;44713;53.378;10.022;2023-02-17T06:20:23;38.47;;;22.80;;
58928;SDS011;44713;53.378;10.022;2023-02-17T06:22:49;37.72;;;22.10;;
58928;SDS011;44713;53.378;10.022;2023-02-17T06:25:14;35.05;;;21.55;;
58928;SDS011;44713;53.378;10.022;2023-02-17T06:27:40;39.47;;;22.80;;
58928;SDS011;44713;53.378;10.022;2023-02-17T06:30:07;38.78;;;23.20;;
58928;SDS011;44713;53.378;10.022;2023-02-17T06:32:49;41.78;;;24.15;;
58928;SDS011;44713;53.378;10.022;2023-02-17T06:35:15;42.00;;;25.15;;
58928;SDS011;44713;53.378;10.022;2023-02-17T06:37:41;40.75;;;24.40;;
58928;SDS011;44713;53.378;10.022;2023-02-17T06:40:06;43.22;;;25.55;;
58928;SDS011;44713;53.378;10.022;2023-02-17T06:42:32;43.58;;;24.85;;
58928;SDS011;44713;53.378;10.022;2023-02-17T06:44:58;48.28;;;26.40;;
58928;SDS011;44713;53.378;10.022;2023-02-17T06:47:24;45.25;;;25.52;;
58928;SDS011;44713;53.378;10.022;2023-02-17T06:49:50;46.83;;;26.55;;
58928;SDS011;44713;53.378;10.022;2023-02-17T06:52:15;45.92;;;25.60;;
58928;SDS011;44713;53.378;10.022;2023-02-17T06:54:41;53.67;;;26.50;;
58928;SDS011;44713;53.378;10.022;2023-02-17T06:57:06;50.60;;;28.05;;
58928;SDS011;44713;53.378;10.022;2023-02-17T06:59:32;49.92;;;28.77;;
58928;SDS011;44713;53.378;10.022;2023-02-17T07:01:57;53.22;;;28.30;;
58928;SDS011;44713;53.378;10.022;2023-02-17T07:04:23;52.13;;;29.85;;
58928;SDS011;44713;53.378;10.022;2023-02-17T07:06:48;49.70;;;28.50;;
58928;SDS011;44713;53.378;10.022;2023-02-17T07:09:13;54.53;;;28.70;;
58928;SDS011;44713;53.378;10.022;2023-02-17T07:11:39;53.35;;;29.20;;
58928;SDS011;44713;53.378;10.022;2023-02-17T07:14:05;52.28;;;29.45;;
58928;SDS011;44713;53.378;10.022;2023-02-17T07:16:31;56.08;;;29.85;;
58928;SDS011;44713;53.378;10.022;2023-02-17T07:18:57;52.15;;;28.83;;
58928;SDS011;44713;53.378;10.022;2023-02-17T07:21:22;49.90;;;28.17;;
58928;SDS011;44713;53.378;10.022;2023-02-17T07:23:47;52.38;;;28.85;;
58928;SDS011;44713;53.378;10.022;2023-02-17T07:26:13;48.28;;;27.35;;
58928;SDS011;44713;53.378;10.022;2023-02-17T07:28:39;49.05;;;27.40;;
58928;SDS011;44713;53.378;10.022;2023-02-17T07:31:05;51.25;;;28.70;;
58928;SDS011;44713;53.378;10.022;2023-02-17T07:33:38;50.67;;;28.50;;
58928;SDS011;44713;53.378;10.022;2023-02-17T07:36:08;52.95;;;27.27;;
58928;SDS011;44713;53.378;10.022;2023-02-17T07:38:36;50.90;;;27.67;;
58928;SDS011;44713;53.378;10.022;2023-02-17T07:43:32;49.88;;;27.38;;
58928;SDS011;44713;53.378;10.022;2023-02-17T07:45:57;48.45;;;27.17;;
58928;SDS011;44713;53.378;10.022;2023-02-17T07:48:22;49.83;;;27.67;;
58928;SDS011;44713;53.378;10.022;2023-02-17T07:50:48;49.30;;;26.38;;
58928;SDS011;44713;53.378;10.022;2023-02-17T07:53:13;45.13;;;24.98;;
58928;SDS011;44713;53.378;10.022;2023-02-17T07:55:39;48.63;;;27.50;;
58928;SDS011;44713;53.378;10.022;2023-02-17T07:58:04;47.58;;;26.25;;
58928;SDS011;44713;53.378;10.022;2023-02-17T08:00:29;46.42;;;27.15;;
58928;SDS011;44713;53.378;10.022;2023-02-17T08:02:55;52.03;;;27.23;;
58928;SDS011;44713;53.378;10.022;2023-02-17T08:05:20;46.33;;;26.05;;
58928;SDS011;44713;53.378;10.022;2023-02-17T08:07:45;42.15;;;24.42;;
58928;SDS011;44713;53.378;10.022;2023-02-17T08:10:11;45.22;;;25.10;;
58928;SDS011;44713;53.378;10.022;2023-02-17T08:15:40;36.78;;;21.67;;
58928;SDS011;44713;53.378;10.022;2023-02-17T08:18:05;50.35;;;22.85;;
58928;SDS011;44713;53.378;10.022;2023-02-17T08:20:30;40.30;;;20.85;;
58928;SDS011;44713;53.378;10.022;2023-02-17T08:22:56;41.72;;;21.45;;
58928;SDS011;44713;53.378;10.022;2023-02-17T08:25:21;40.13;;;21.02;;
58928;SDS011;44713;53.378;10.022;2023-02-17T08:27:47;37.08;;;21.35;;
58928;SDS011;44713;53.378;10.022;2023-02-17T08:30:12;34.20;;;19.98;;
58928;SDS011;44713;53.378;10.022;2023-02-17T08:32:38;33.92;;;19.27;;
58928;SDS011;44713;53.378;10.022;2023-02-17T08:35:03;36.67;;;19.20;;
58928;SDS011;44713;53.378;10.022;2023-02-17T08:37:30;30.83;;;17.83;;
58928;SDS011;44713;53.378;10.022;2023-02-17T08:39:56;29.38;;;16.75;;
58928;SDS011;44713;53.378;10.022;2023-02-17T08:42:24;34.60;;;18.63;;
58928;SDS011;44713;53.378;10.022;2023-02-17T08:44:50;29.10;;;17.33;;
58928;SDS011;44713;53.378;10.022;2023-02-17T08:47:15;32.88;;;18.05;;
58928;SDS011;44713;53.378;10.022;2023-02-17T08:49:41;30.02;;;17.08;;
58928;SDS011;44713;53.378;10.022;2023-02-17T08:52:06;31.40;;;16.25;;
58928;SDS011;44713;53.378;10.022;2023-02-17T08:54:31;28.40;;;16.80;;
58928;SDS011;44713;53.378;10.022;2023-02-17T08:56:57;32.28;;;18.05;;
58928;SDS011;44713;53.378;10.022;2023-02-17T08:59:23;33.38;;;18.08;;
58928;SDS011;44713;53.378;10.022;2023-02-17T09:01:48;33.33;;;17.13;;
58928;SDS011;44713;53.378;10.022;2023-02-17T09:04:16;33.97;;;17.60;;
58928;SDS011;44713;53.378;10.022;2023-02-17T09:06:44;34.38;;;17.98;;
58928;SDS011;44713;53.378;10.022;2023-02-17T09:09:12;33.45;;;16.52;;
58928;SDS011;44713;53.378;10.022;2023-02-17T09:11:39;28.10;;;16.52;;
58928;SDS011;44713;53.378;10.022;2023-02-17T09:14:05;27.83;;;16.45;;
58928;SDS011;44713;53.378;10.022;2023-02-17T09:16:31;31.52;;;17.38;;
58928;SDS011;44713;53.378;10.022;2023-02-17T09:18:57;26.83;;;14.95;;
58928;SDS011;44713;53.378;10.022;2023-02-17T09:21:22;29.60;;;15.32;;
58928;SDS011;44713;53.378;10.022;2023-02-17T09:23:48;25.35;;;14.75;;
58928;SDS011;44713;53.378;10.022;2023-02-17T09:26:14;27.60;;;14.63;;
58928;SDS011;44713;53.378;10.022;2023-02-17T09:28:41;25.90;;;14.98;;
58928;SDS011;44713;53.378;10.022;2023-02-17T09:31:10;25.23;;;14.73;;
58928;SDS011;44713;53.378;10.022;2023-02-17T09:33:38;28.33;;;14.95;;
58928;SDS011;44713;53.378;10.022;2023-02-17T09:36:04;27.20;;;14.35;;
58928;SDS011;44713;53.378;10.022;2023-02-17T09:38:31;23.75;;;13.90;;
58928;SDS011;44713;53.378;10.022;2023-02-17T09:40:59;21.25;;;13.15;;
58928;SDS011;44713;53.378;10.022;2023-02-17T09:43:32;22.35;;;13.13;;
58928;SDS011;44713;53.378;10.022;2023-02-17T09:45:59;24.10;;;14.32;;
58928;SDS011;44713;53.378;10.022;2023-02-17T09:48:34;22.30;;;13.45;;
58928;SDS011;44713;53.378;10.022;2023-02-17T09:51:01;25.15;;;14.38;;
58928;SDS011;44713;53.378;10.022;2023-02-17T09:53:40;22.35;;;13.50;;
58928;SDS011;44713;53.378;10.022;2023-02-17T09:56:13;20.20;;;12.98;;
58928;SDS011;44713;53.378;10.022;2023-02-17T09:58:45;23.48;;;13.75;;
58928;SDS011;44713;53.378;10.022;2023-02-17T10:01:22;22.85;;;13.30;;
58928;SDS011;44713;53.378;10.022;2023-02-17T10:04:10;26.48;;;13.90;;
58928;SDS011;44713;53.378;10.022;2023-02-17T10:06:45;24.30;;;14.50;;
58928;SDS011;44713;53.378;10.022;2023-02-17T10:11:59;25.58;;;14.00;;
58928;SDS011;44713;53.378;10.022;2023-02-17T10:14:47;24.75;;;13.88;;
58928;SDS011;44713;53.378;10.022;2023-02-17T10:19:52;23.63;;;13.80;;
58928;SDS011;44713;53.378;10.022;2023-02-17T10:22:41;24.95;;;14.85;;
58928;SDS011;44713;53.378;10.022;2023-02-17T10:25:13;27.60;;;14.98;;
58928;SDS011;44713;53.378;10.022;2023-02-17T10:27:49;29.33;;;15.65;;
58928;SDS011;44713;53.378;10.022;2023-02-17T10:35:48;34.72;;;16.83;;
58928;SDS011;44713;53.378;10.022;2023-02-17T10:41:00;28.73;;;16.67;;
58928;SDS011;44713;53.378;10.022;2023-02-17T10:43:28;34.85;;;18.10;;
58928;SDS011;44713;53.378;10.022;2023-02-17T10:45:57;29.80;;;18.25;;
58928;SDS011;44713;53.378;10.022;2023-02-17T10:48:32;30.05;;;16.67;;
58928;SDS011;44713;53.378;10.022;2023-02-17T10:51:02;32.25;;;17.48;;
58928;SDS011;44713;53.378;10.022;2023-02-17T10:53:29;32.47;;;17.98;;
58928;SDS011;44713;53.378;10.022;2023-02-17T10:55:59;32.15;;;17.23;;
58928;SDS011;44713;53.378;10.022;2023-02-17T11:01:10;38.42;;;18.05;;
58928;SDS011;44713;53.378;10.022;2023-02-17T11:03:36;33.15;;;18.13;;
58928;SDS011;44713;53.378;10.022;2023-02-17T11:06:05;34.42;;;19.42;;
58928;SDS011;44713;53.378;10.022;2023-02-17T11:08:45;37.20;;;19.42;;
58928;SDS011;44713;53.378;10.022;2023-02-17T11:11:24;35.53;;;19.75;;
58928;SDS011;44713;53.378;10.022;2023-02-17T11:16:46;32.05;;;17.42;;
58928;SDS011;44713;53.378;10.022;2023-02-17T11:19:20;37.67;;;18.48;;
58928;SDS011;44713;53.378;10.022;2023-02-17T11:21:49;37.28;;;19.98;;
58928;SDS011;44713;53.378;10.022;2023-02-17T11:24:16;40.97;;;19.30;;
58928;SDS011;44713;53.378;10.022;2023-02-17T11:26:41;38.42;;;19.88;;
58928;SDS011;44713;53.378;10.022;2023-02-17T11:29:14;40.00;;;20.15;;
58928;SDS011;44713;53.378;10.022;2023-02-17T11:34:21;35.15;;;18.90;;
58928;SDS011;44713;53.378;10.022;2023-02-17T11:37:04;38.08;;;19.25;;
58928;SDS011;44713;53.378;10.022;2023-02-17T11:39:35;38.40;;;19.77;;
58928;SDS011;44713;53.378;10.022;2023-02-17T11:42:12;36.47;;;19.70;;
58928;SDS011;44713;53.378;10.022;2023-02-17T11:44:41;38.22;;;20.05;;
58928;SDS011;44713;53.378;10.022;2023-02-17T11:50:00;34.20;;;19.02;;
58928;SDS011;44713;53.378;10.022;2023-02-17T11:52:50;34.65;;;18.83;;
58928;SDS011;44713;53.378;10.022;2023-02-17T12:04:16;43.08;;;20.02;;
58928;SDS011;44713;53.378;10.022;2023-02-17T12:06:57;38.38;;;19.30;;
58928;SDS011;44713;53.378;10.022;2023-02-17T12:09:34;38.47;;;19.52;;
58928;SDS011;44713;53.378;10.022;2023-02-17T12:26:10;29.08;;;15.70;;
58928;SDS011;44713;53.378;10.022;2023-02-17T12:28:49;29.90;;;16.30;;
58928;SDS011;44713;53.378;10.022;2023-02-17T12:37:10;30.42;;;16.17;;
58928;SDS011;44713;53.378;10.022;2023-02-17T12:39:45;31.33;;;17.20;;
58928;SDS011;44713;53.378;10.022;2023-02-17T12:42:29;34.53;;;17.65;;
58928;SDS011;44713;53.378;10.022;2023-02-17T12:44:59;32.20;;;17.35;;
58928;SDS011;44713;53.378;10.022;2023-02-17T12:47:36;33.30;;;17.80;;
58928;SDS011;44713;53.378;10.022;2023-02-17T12:52:45;32.10;;;16.80;;
58928;SDS011;44713;53.378;10.022;2023-02-17T12:57:48;30.88;;;16.00;;
58928;SDS011;44713;53.378;10.022;2023-02-17T13:00:39;28.08;;;15.68;;
58928;SDS011;44713;53.378;10.022;2023-02-17T13:03:28;29.80;;;14.73;;
58928;SDS011;44713;53.378;10.022;2023-02-17T13:06:05;30.38;;;15.30;;
58928;SDS011;44713;53.378;10.022;2023-02-17T13:08:37;24.00;;;13.48;;
58928;SDS011;44713;53.378;10.022;2023-02-17T13:11:09;22.98;;;12.68;;
58928;SDS011;44713;53.378;10.022;2023-02-17T13:13:36;20.58;;;12.82;;
58928;SDS011;44713;53.378;10.022;2023-02-17T13:18:36;18.98;;;12.13;;
58928;SDS011;44713;53.378;10.022;2023-02-17T13:26:54;14.80;;;8.40;;
58928;SDS011;44713;53.378;10.022;2023-02-17T13:31:58;13.07;;;9.00;;
58928;SDS011;44713;53.378;10.022;2023-02-17T13:34:36;16.42;;;8.68;;
58928;SDS011;44713;53.378;10.022;2023-02-17T13:40:07;12.38;;;8.10;;
58928;SDS011;44713;53.378;10.022;2023-02-17T13:42:44;17.50;;;8.00;;
58928;SDS011;44713;53.378;10.022;2023-02-17T13:47:49;13.18;;;7.53;;
58928;SDS011;44713;53.378;10.022;2023-02-17T13:50:26;12.75;;;7.10;;
58928;SDS011;44713;53.378;10.022;2023-02-17T13:53:00;14.50;;;7.28;;
58928;SDS011;44713;53.378;10.022;2023-02-17T13:55:26;13.05;;;6.80;;
58928;SDS011;44713;53.378;10.022;2023-02-17T13:57:53;13.63;;;7.80;;
58928;SDS011;44713;53.378;10.022;2023-02-17T14:00:25;17.20;;;7.90;;
58928;SDS011;44713;53.378;10.022;2023-02-17T14:02:53;17.20;;;8.20;;
58928;SDS011;44713;53.378;10.022;2023-02-17T14:05:39;15.73;;;8.80;;
58928;SDS011;44713;53.378;10.022;2023-02-17T14:08:18;16.77;;;8.43;;
58928;SDS011;44713;53.378;10.022;2023-02-17T14:11:08;16.80;;;8.00;;
58928;SDS011;44713;53.378;10.022;2023-02-17T14:13:38;13.80;;;7.80;;
58928;SDS011;44713;53.378;10.022;2023-02-17T14:16:06;13.68;;;7.85;;
58928;SDS011;44713;53.378;10.022;2023-02-17T14:18:46;14.45;;;7.60;;
58928;SDS011;44713;53.378;10.022;2023-02-17T14:21:22;14.43;;;7.63;;
58928;SDS011;44713;53.378;10.022;2023-02-17T14:23:50;15.07;;;7.93;;
58928;SDS011;44713;53.378;10.022;2023-02-17T14:26:25;15.45;;;7.40;;
58928;SDS011;44713;53.378;10.022;2023-02-17T14:29:08;11.68;;;7.40;;
58928;SDS011;44713;53.378;10.022;2023-02-17T14:31:41;16.83;;;7.30;;
58928;SDS011;44713;53.378;10.022;2023-02-17T14:34:16;14.77;;;7.13;;
58928;SDS011;44713;53.378;10.022;2023-02-17T14:36:48;16.55;;;6.40;;
58928;SDS011;44713;53.378;10.022;2023-02-17T14:39:14;14.18;;;6.47;;
58928;SDS011;44713;53.378;10.022;2023-02-17T14:41:40;13.20;;;7.40;;
58928;SDS011;44713;53.378;10.022;2023-02-17T14:44:06;11.52;;;6.18;;
58928;SDS011;44713;53.378;10.022;2023-02-17T14:46:33;14.30;;;6.20;;
58928;SDS011;44713;53.378;10.022;2023-02-17T14:48:59;11.95;;;5.05;;
58928;SDS011;44713;53.378;10.022;2023-02-17T14:51:29;12.10;;;5.97;;
58928;SDS011;44713;53.378;10.022;2023-02-17T14:53:57;10.52;;;5.53;;
58928;SDS011;44713;53.378;10.022;2023-02-17T14:56:31;14.63;;;5.82;;
58928;SDS011;44713;53.378;10.022;2023-02-17T14:58:58;14.82;;;6.07;;
58928;SDS011;44713;53.378;10.022;2023-02-17T15:01:24;20.25;;;5.35;;
58928;SDS011;44713;53.378;10.022;2023-02-17T15:03:51;14.15;;;5.78;;
58928;SDS011;44713;53.378;10.022;2023-02-17T15:06:18;14.98;;;6.13;;
58928;SDS011;44713;53.378;10.022;2023-02-17T15:08:46;16.17;;;6.60;;
58928;SDS011;44713;53.378;10.022;2023-02-17T15:11:32;11.10;;;3.97;;
58928;SDS011;44713;53.378;10.022;2023-02-17T15:14:01;9.77;;;3.55;;
58928;SDS011;44713;53.378;10.022;2023-02-17T15:16:27;8.63;;;3.05;;
58928;SDS011;44713;53.378;10.022;2023-02-17T15:18:53;14.60;;;4.32;;
58928;SDS011;44713;53.378;10.022;2023-02-17T15:21:25;12.75;;;2.63;;
58928;SDS011;44713;53.378;10.022;2023-02-17T15:23:56;12.75;;;2.70;;
58928;SDS011;44713;53.378;10.022;2023-02-17T15:26:23;16.42;;;2.75;;
58928;SDS011;44713;53.378;10.022;2023-02-17T15:28:48;13.07;;;2.25;;
58928;SDS011;44713;53.378;10.022;2023-02-17T15:31:14;14.60;;;2.53;;
58928;SDS011;44713;53.378;10.022;2023-02-17T15:33:41;11.48;;;2.28;;
58928;SDS011;44713;53.378;10.022;2023-02-17T15:36:09;9.60;;;1.70;;
58928;SDS011;44713;53.378;10.022;2023-02-17T15:38:38;12.82;;;1.90;;
58928;SDS011;44713;53.378;10.022;2023-02-17T15:41:04;12.27;;;2.38;;
58928;SDS011;44713;53.378;10.022;2023-02-17T15:43:35;14.73;;;2.85;;
58928;SDS011;44713;53.378;10.022;2023-02-17T15:46:00;22.08;;;4.15;;
58928;SDS011;44713;53.378;10.022;2023-02-17T15:48:27;16.63;;;2.85;;
58928;SDS011;44713;53.378;10.022;2023-02-17T15:50:57;20.38;;;3.15;;
58928;SDS011;44713;53.378;10.022;2023-02-17T15:53:22;20.42;;;3.38;;
58928;SDS011;44713;53.378;10.022;2023-02-17T15:55:48;18.20;;;3.30;;
58928;SDS011;44713;53.378;10.022;2023-02-17T15:58:18;18.60;;;3.35;;
58928;SDS011;44713;53.378;10.022;2023-02-17T16:00:46;13.55;;;2.63;;
58928;SDS011;44713;53.378;10.022;2023-02-17T16:03:14;14.98;;;2.65;;